sensor_id;sensor_type;location;lat;lon;timestamp;P1;durP1;ratioP1;P2;durP2;ratioP2
80272;SDS011;69574;45.328;9.598;2023-09-19T00:01:33;13.50;;;9.05;;
80272;SDS011;69574;45.328;9.598;2023-09-19T00:06:29;14.45;;;8.18;;
80272;SDS011;69574;45.328;9.598;2023-09-19T00:08:57;12.80;;;9.25;;
80272;SDS011;69574;45.328;9.598;2023-09-19T00:11:24;12.73;;;8.70;;
80272;SDS011;69574;45.328;9.598;2023-09-19T00:13:51;12.30;;;9.25;;
80272;SDS011;69574;45.328;9.598;2023-09-19T00:16:17;14.90;;;9.98;;
80272;SDS011;69574;45.328;9.598;2023-09-19T00:18:44;12.63;;;9.07;;
80272;SDS011;69574;45.328;9.598;2023-09-19T00:21:10;14.15;;;9.50;;
80272;SDS011;69574;45.328;9.598;2023-09-19T00:23:37;12.25;;;9.25;;
80272;SDS011;69574;45.328;9.598;2023-09-19T00:26:02;14.95;;;9.93;;
80272;SDS011;69574;45.328;9.598;2023-09-19T00:28:29;14.60;;;8.93;;
80272;SDS011;69574;45.328;9.598;2023-09-19T00:30:57;13.25;;;9.95;;
80272;SDS011;69574;45.328;9.598;2023-09-19T00:33:26;15.75;;;10.70;;
80272;SDS011;69574;45.328;9.598;2023-09-19T00:35:52;11.77;;;8.85;;
80272;SDS011;69574;45.328;9.598;2023-09-19T00:38:18;15.10;;;9.88;;
80272;SDS011;69574;45.328;9.598;2023-09-19T00:40:48;12.65;;;8.85;;
80272;SDS011;69574;45.328;9.598;2023-09-19T00:43:14;14.43;;;9.52;;
80272;SDS011;69574;45.328;9.598;2023-09-19T00:45:42;13.88;;;9.85;;
80272;SDS011;69574;45.328;9.598;2023-09-19T00:48:08;12.02;;;9.25;;
80272;SDS011;69574;45.328;9.598;2023-09-19T00:52:59;13.20;;;9.57;;
80272;SDS011;69574;45.328;9.598;2023-09-19T00:55:25;15.75;;;9.40;;
80272;SDS011;69574;45.328;9.598;2023-09-19T00:57:52;12.80;;;9.27;;
80272;SDS011;69574;45.328;9.598;2023-09-19T01:00:18;11.68;;;9.55;;
80272;SDS011;69574;45.328;9.598;2023-09-19T01:02:45;16.40;;;10.82;;
80272;SDS011;69574;45.328;9.598;2023-09-19T01:05:11;13.80;;;9.45;;
80272;SDS011;69574;45.328;9.598;2023-09-19T01:07:37;14.50;;;9.73;;
80272;SDS011;69574;45.328;9.598;2023-09-19T01:10:06;13.05;;;9.20;;
80272;SDS011;69574;45.328;9.598;2023-09-19T01:12:39;16.00;;;9.27;;
80272;SDS011;69574;45.328;9.598;2023-09-19T01:15:11;13.38;;;9.15;;
80272;SDS011;69574;45.328;9.598;2023-09-19T01:17:42;12.45;;;9.57;;
80272;SDS011;69574;45.328;9.598;2023-09-19T01:20:16;11.23;;;8.57;;
80272;SDS011;69574;45.328;9.598;2023-09-19T01:22:48;13.48;;;9.32;;
80272;SDS011;69574;45.328;9.598;2023-09-19T01:25:29;15.38;;;10.27;;
80272;SDS011;69574;45.328;9.598;2023-09-19T01:28:14;12.65;;;9.07;;
80272;SDS011;69574;45.328;9.598;2023-09-19T01:30:48;14.88;;;8.95;;
80272;SDS011;69574;45.328;9.598;2023-09-19T01:33:19;14.73;;;9.98;;
80272;SDS011;69574;45.328;9.598;2023-09-19T01:35:45;13.73;;;9.50;;
80272;SDS011;69574;45.328;9.598;2023-09-19T01:38:11;14.93;;;10.10;;
80272;SDS011;69574;45.328;9.598;2023-09-19T01:40:39;16.48;;;10.23;;
80272;SDS011;69574;45.328;9.598;2023-09-19T01:43:07;11.48;;;8.90;;
80272;SDS011;69574;45.328;9.598;2023-09-19T01:45:35;11.07;;;9.23;;
80272;SDS011;69574;45.328;9.598;2023-09-19T01:48:05;11.82;;;7.95;;
80272;SDS011;69574;45.328;9.598;2023-09-19T01:50:38;13.63;;;9.13;;
80272;SDS011;69574;45.328;9.598;2023-09-19T01:53:07;12.05;;;8.95;;
80272;SDS011;69574;45.328;9.598;2023-09-19T01:55:37;14.68;;;10.13;;
80272;SDS011;69574;45.328;9.598;2023-09-19T02:00:34;14.07;;;9.50;;
80272;SDS011;69574;45.328;9.598;2023-09-19T02:03:01;11.93;;;8.32;;
80272;SDS011;69574;45.328;9.598;2023-09-19T02:05:29;11.23;;;7.90;;
80272;SDS011;69574;45.328;9.598;2023-09-19T02:07:55;11.50;;;8.18;;
80272;SDS011;69574;45.328;9.598;2023-09-19T02:10:21;11.05;;;8.38;;
80272;SDS011;69574;45.328;9.598;2023-09-19T02:12:47;12.82;;;8.20;;
80272;SDS011;69574;45.328;9.598;2023-09-19T02:15:13;13.68;;;8.48;;
80272;SDS011;69574;45.328;9.598;2023-09-19T02:17:41;13.20;;;9.65;;
80272;SDS011;69574;45.328;9.598;2023-09-19T02:20:07;16.15;;;11.65;;
80272;SDS011;69574;45.328;9.598;2023-09-19T02:22:36;15.80;;;11.73;;
80272;SDS011;69574;45.328;9.598;2023-09-19T02:25:03;17.80;;;11.52;;
80272;SDS011;69574;45.328;9.598;2023-09-19T02:27:29;14.85;;;10.02;;
80272;SDS011;69574;45.328;9.598;2023-09-19T02:29:56;15.65;;;11.68;;
80272;SDS011;69574;45.328;9.598;2023-09-19T02:32:21;17.08;;;12.00;;
80272;SDS011;69574;45.328;9.598;2023-09-19T02:34:48;18.17;;;12.20;;
80272;SDS011;69574;45.328;9.598;2023-09-19T02:37:14;16.75;;;11.90;;
80272;SDS011;69574;45.328;9.598;2023-09-19T02:39:42;17.25;;;11.88;;
80272;SDS011;69574;45.328;9.598;2023-09-19T02:42:08;16.50;;;12.77;;
80272;SDS011;69574;45.328;9.598;2023-09-19T02:44:34;17.15;;;12.45;;
80272;SDS011;69574;45.328;9.598;2023-09-19T02:49:25;17.93;;;11.30;;
80272;SDS011;69574;45.328;9.598;2023-09-19T02:51:51;15.02;;;11.88;;
80272;SDS011;69574;45.328;9.598;2023-09-19T02:54:17;18.20;;;11.40;;
80272;SDS011;69574;45.328;9.598;2023-09-19T02:56:44;18.17;;;10.80;;
80272;SDS011;69574;45.328;9.598;2023-09-19T02:59:10;17.83;;;11.07;;
80272;SDS011;69574;45.328;9.598;2023-09-19T03:01:35;14.50;;;10.38;;
80272;SDS011;69574;45.328;9.598;2023-09-19T03:04:02;18.55;;;11.50;;
80272;SDS011;69574;45.328;9.598;2023-09-19T03:06:28;16.77;;;11.38;;
80272;SDS011;69574;45.328;9.598;2023-09-19T03:08:56;17.40;;;12.27;;
80272;SDS011;69574;45.328;9.598;2023-09-19T03:11:21;14.38;;;11.18;;
80272;SDS011;69574;45.328;9.598;2023-09-19T03:13:52;18.50;;;10.43;;
80272;SDS011;69574;45.328;9.598;2023-09-19T03:16:17;13.70;;;9.80;;
80272;SDS011;69574;45.328;9.598;2023-09-19T03:18:44;12.25;;;9.18;;
80272;SDS011;69574;45.328;9.598;2023-09-19T03:21:10;14.73;;;9.43;;
80272;SDS011;69574;45.328;9.598;2023-09-19T03:23:35;13.18;;;9.90;;
80272;SDS011;69574;45.328;9.598;2023-09-19T03:26:01;13.30;;;9.75;;
80272;SDS011;69574;45.328;9.598;2023-09-19T03:28:27;14.10;;;9.35;;
80272;SDS011;69574;45.328;9.598;2023-09-19T03:31:01;14.90;;;9.95;;
80272;SDS011;69574;45.328;9.598;2023-09-19T03:33:27;16.83;;;10.30;;
80272;SDS011;69574;45.328;9.598;2023-09-19T03:35:52;16.48;;;10.40;;
80272;SDS011;69574;45.328;9.598;2023-09-19T03:38:18;13.48;;;9.25;;
80272;SDS011;69574;45.328;9.598;2023-09-19T03:40:44;15.25;;;9.50;;
80272;SDS011;69574;45.328;9.598;2023-09-19T03:43:10;13.65;;;9.40;;
80272;SDS011;69574;45.328;9.598;2023-09-19T03:45:35;17.08;;;9.85;;
80272;SDS011;69574;45.328;9.598;2023-09-19T03:48:06;14.07;;;9.18;;
80272;SDS011;69574;45.328;9.598;2023-09-19T03:50:33;15.63;;;9.68;;
80272;SDS011;69574;45.328;9.598;2023-09-19T03:52:58;14.80;;;9.15;;
80272;SDS011;69574;45.328;9.598;2023-09-19T03:55:24;12.63;;;9.65;;
80272;SDS011;69574;45.328;9.598;2023-09-19T03:57:50;14.15;;;9.25;;
80272;SDS011;69574;45.328;9.598;2023-09-19T04:00:15;13.27;;;9.13;;
80272;SDS011;69574;45.328;9.598;2023-09-19T04:02:43;15.25;;;10.75;;
80272;SDS011;69574;45.328;9.598;2023-09-19T04:05:12;14.55;;;10.52;;
80272;SDS011;69574;45.328;9.598;2023-09-19T04:07:38;15.60;;;11.57;;
80272;SDS011;69574;45.328;9.598;2023-09-19T04:10:04;21.83;;;13.02;;
80272;SDS011;69574;45.328;9.598;2023-09-19T04:12:30;22.38;;;14.77;;
80272;SDS011;69574;45.328;9.598;2023-09-19T04:14:55;25.23;;;16.60;;
80272;SDS011;69574;45.328;9.598;2023-09-19T04:17:21;27.48;;;17.55;;
80272;SDS011;69574;45.328;9.598;2023-09-19T04:19:48;26.30;;;17.50;;
80272;SDS011;69574;45.328;9.598;2023-09-19T04:22:15;25.35;;;16.75;;
80272;SDS011;69574;45.328;9.598;2023-09-19T04:24:41;26.27;;;17.45;;
80272;SDS011;69574;45.328;9.598;2023-09-19T04:27:06;26.13;;;16.83;;
80272;SDS011;69574;45.328;9.598;2023-09-19T04:29:32;25.52;;;17.98;;
80272;SDS011;69574;45.328;9.598;2023-09-19T04:31:58;31.30;;;19.67;;
80272;SDS011;69574;45.328;9.598;2023-09-19T04:34:24;34.03;;;20.65;;
80272;SDS011;69574;45.328;9.598;2023-09-19T04:36:49;38.97;;;21.50;;
80272;SDS011;69574;45.328;9.598;2023-09-19T04:39:16;42.40;;;23.50;;
80272;SDS011;69574;45.328;9.598;2023-09-19T04:41:43;40.15;;;22.25;;
80272;SDS011;69574;45.328;9.598;2023-09-19T04:44:11;41.03;;;21.80;;
80272;SDS011;69574;45.328;9.598;2023-09-19T04:46:37;40.50;;;22.98;;
80272;SDS011;69574;45.328;9.598;2023-09-19T04:49:03;37.65;;;22.83;;
80272;SDS011;69574;45.328;9.598;2023-09-19T04:51:29;42.60;;;24.17;;
80272;SDS011;69574;45.328;9.598;2023-09-19T04:53:59;40.60;;;23.40;;
80272;SDS011;69574;45.328;9.598;2023-09-19T04:56:26;42.58;;;22.08;;
80272;SDS011;69574;45.328;9.598;2023-09-19T04:58:53;46.47;;;24.35;;
80272;SDS011;69574;45.328;9.598;2023-09-19T05:01:19;39.13;;;23.95;;
80272;SDS011;69574;45.328;9.598;2023-09-19T05:03:48;40.33;;;23.60;;
80272;SDS011;69574;45.328;9.598;2023-09-19T05:06:17;42.63;;;23.73;;
80272;SDS011;69574;45.328;9.598;2023-09-19T05:08:43;38.20;;;22.55;;
80272;SDS011;69574;45.328;9.598;2023-09-19T05:11:09;43.40;;;24.45;;
80272;SDS011;69574;45.328;9.598;2023-09-19T05:13:36;54.75;;;25.83;;
80272;SDS011;69574;45.328;9.598;2023-09-19T05:16:01;49.50;;;24.35;;
80272;SDS011;69574;45.328;9.598;2023-09-19T05:18:27;63.25;;;25.80;;
80272;SDS011;69574;45.328;9.598;2023-09-19T05:20:53;47.35;;;24.38;;
80272;SDS011;69574;45.328;9.598;2023-09-19T05:23:20;40.83;;;23.90;;
80272;SDS011;69574;45.328;9.598;2023-09-19T05:25:46;39.80;;;24.33;;
80272;SDS011;69574;45.328;9.598;2023-09-19T05:28:11;38.33;;;23.13;;
80272;SDS011;69574;45.328;9.598;2023-09-19T05:30:41;39.03;;;22.52;;
80272;SDS011;69574;45.328;9.598;2023-09-19T05:33:10;36.25;;;22.55;;
80272;SDS011;69574;45.328;9.598;2023-09-19T05:35:37;34.50;;;22.40;;
80272;SDS011;69574;45.328;9.598;2023-09-19T05:38:05;32.90;;;22.13;;
80272;SDS011;69574;45.328;9.598;2023-09-19T05:40:34;36.42;;;21.83;;
80272;SDS011;69574;45.328;9.598;2023-09-19T05:43:00;35.75;;;21.92;;
80272;SDS011;69574;45.328;9.598;2023-09-19T05:45:25;31.05;;;20.77;;
80272;SDS011;69574;45.328;9.598;2023-09-19T05:47:54;34.47;;;20.63;;
80272;SDS011;69574;45.328;9.598;2023-09-19T05:50:26;32.85;;;19.65;;
80272;SDS011;69574;45.328;9.598;2023-09-19T05:52:51;30.52;;;19.95;;
80272;SDS011;69574;45.328;9.598;2023-09-19T05:55:17;31.35;;;19.00;;
80272;SDS011;69574;45.328;9.598;2023-09-19T05:57:43;32.00;;;20.27;;
80272;SDS011;69574;45.328;9.598;2023-09-19T06:00:09;30.98;;;19.95;;
80272;SDS011;69574;45.328;9.598;2023-09-19T06:02:37;29.17;;;19.90;;
80272;SDS011;69574;45.328;9.598;2023-09-19T06:05:05;32.65;;;21.08;;
80272;SDS011;69574;45.328;9.598;2023-09-19T06:07:36;28.67;;;20.25;;
80272;SDS011;69574;45.328;9.598;2023-09-19T06:10:02;31.70;;;20.38;;
80272;SDS011;69574;45.328;9.598;2023-09-19T06:12:30;33.33;;;21.17;;
80272;SDS011;69574;45.328;9.598;2023-09-19T06:14:58;34.28;;;23.42;;
80272;SDS011;69574;45.328;9.598;2023-09-19T06:17:24;36.15;;;22.05;;
80272;SDS011;69574;45.328;9.598;2023-09-19T06:19:50;35.03;;;22.25;;
80272;SDS011;69574;45.328;9.598;2023-09-19T06:22:17;34.03;;;22.55;;
80272;SDS011;69574;45.328;9.598;2023-09-19T06:24:44;34.97;;;21.65;;
80272;SDS011;69574;45.328;9.598;2023-09-19T06:27:09;31.85;;;21.35;;
80272;SDS011;69574;45.328;9.598;2023-09-19T06:29:35;31.20;;;20.45;;
80272;SDS011;69574;45.328;9.598;2023-09-19T06:32:02;32.63;;;21.42;;
80272;SDS011;69574;45.328;9.598;2023-09-19T06:34:32;33.30;;;21.50;;
80272;SDS011;69574;45.328;9.598;2023-09-19T06:36:58;29.65;;;19.73;;
80272;SDS011;69574;45.328;9.598;2023-09-19T06:39:25;30.55;;;20.65;;
80272;SDS011;69574;45.328;9.598;2023-09-19T06:41:51;33.45;;;20.83;;
80272;SDS011;69574;45.328;9.598;2023-09-19T06:44:18;30.85;;;19.65;;
80272;SDS011;69574;45.328;9.598;2023-09-19T06:46:46;32.22;;;19.23;;
80272;SDS011;69574;45.328;9.598;2023-09-19T06:49:16;29.05;;;19.10;;
80272;SDS011;69574;45.328;9.598;2023-09-19T06:51:42;31.75;;;20.08;;
80272;SDS011;69574;45.328;9.598;2023-09-19T06:54:09;31.27;;;19.15;;
80272;SDS011;69574;45.328;9.598;2023-09-19T06:56:36;28.88;;;20.15;;
80272;SDS011;69574;45.328;9.598;2023-09-19T06:59:01;35.60;;;21.67;;
80272;SDS011;69574;45.328;9.598;2023-09-19T07:01:28;41.00;;;23.13;;
80272;SDS011;69574;45.328;9.598;2023-09-19T07:03:54;40.42;;;22.88;;
80272;SDS011;69574;45.328;9.598;2023-09-19T07:06:19;44.95;;;25.00;;
80272;SDS011;69574;45.328;9.598;2023-09-19T07:08:45;42.08;;;25.10;;
80272;SDS011;69574;45.328;9.598;2023-09-19T07:11:11;46.15;;;25.33;;
80272;SDS011;69574;45.328;9.598;2023-09-19T07:13:39;49.65;;;27.42;;
80272;SDS011;69574;45.328;9.598;2023-09-19T07:16:04;47.30;;;25.85;;
80272;SDS011;69574;45.328;9.598;2023-09-19T07:18:30;45.60;;;26.77;;
80272;SDS011;69574;45.328;9.598;2023-09-19T07:20:57;47.50;;;26.73;;
80272;SDS011;69574;45.328;9.598;2023-09-19T07:23:26;47.08;;;27.10;;
80272;SDS011;69574;45.328;9.598;2023-09-19T07:25:52;46.63;;;27.70;;
80272;SDS011;69574;45.328;9.598;2023-09-19T07:28:17;44.97;;;28.08;;
80272;SDS011;69574;45.328;9.598;2023-09-19T07:30:45;44.65;;;26.92;;
80272;SDS011;69574;45.328;9.598;2023-09-19T07:33:10;42.97;;;27.77;;
80272;SDS011;69574;45.328;9.598;2023-09-19T07:35:39;47.10;;;26.33;;
80272;SDS011;69574;45.328;9.598;2023-09-19T07:38:07;44.92;;;25.50;;
80272;SDS011;69574;45.328;9.598;2023-09-19T07:40:33;44.45;;;25.08;;
80272;SDS011;69574;45.328;9.598;2023-09-19T07:42:59;45.97;;;27.83;;
80272;SDS011;69574;45.328;9.598;2023-09-19T07:45:27;46.13;;;25.25;;
80272;SDS011;69574;45.328;9.598;2023-09-19T07:47:54;48.22;;;27.30;;
80272;SDS011;69574;45.328;9.598;2023-09-19T07:50:20;42.53;;;24.77;;
80272;SDS011;69574;45.328;9.598;2023-09-19T07:52:46;42.53;;;25.70;;
80272;SDS011;69574;45.328;9.598;2023-09-19T07:55:12;41.85;;;23.92;;
80272;SDS011;69574;45.328;9.598;2023-09-19T07:57:42;42.42;;;25.33;;
80272;SDS011;69574;45.328;9.598;2023-09-19T08:02:35;46.00;;;22.30;;
80272;SDS011;69574;45.328;9.598;2023-09-19T08:05:03;40.28;;;22.83;;
80272;SDS011;69574;45.328;9.598;2023-09-19T08:07:31;41.67;;;24.40;;
80272;SDS011;69574;45.328;9.598;2023-09-19T08:09:57;36.03;;;22.92;;
80272;SDS011;69574;45.328;9.598;2023-09-19T08:12:24;37.42;;;23.05;;
80272;SDS011;69574;45.328;9.598;2023-09-19T08:14:49;33.65;;;21.70;;
80272;SDS011;69574;45.328;9.598;2023-09-19T08:17:15;29.42;;;20.55;;
80272;SDS011;69574;45.328;9.598;2023-09-19T08:19:41;29.58;;;20.30;;
80272;SDS011;69574;45.328;9.598;2023-09-19T08:22:11;26.27;;;19.33;;
80272;SDS011;69574;45.328;9.598;2023-09-19T08:24:37;26.85;;;19.00;;
80272;SDS011;69574;45.328;9.598;2023-09-19T08:27:03;32.17;;;20.23;;
80272;SDS011;69574;45.328;9.598;2023-09-19T08:29:30;29.05;;;19.23;;
80272;SDS011;69574;45.328;9.598;2023-09-19T08:31:55;136.70;;;24.75;;
80272;SDS011;69574;45.328;9.598;2023-09-19T08:34:21;32.30;;;18.85;;
80272;SDS011;69574;45.328;9.598;2023-09-19T08:36:47;26.17;;;17.23;;
80272;SDS011;69574;45.328;9.598;2023-09-19T08:39:14;21.35;;;15.25;;
80272;SDS011;69574;45.328;9.598;2023-09-19T08:41:40;21.85;;;15.23;;
80272;SDS011;69574;45.328;9.598;2023-09-19T08:44:06;24.92;;;15.90;;
80272;SDS011;69574;45.328;9.598;2023-09-19T08:46:31;23.33;;;15.45;;
80272;SDS011;69574;45.328;9.598;2023-09-19T08:49:03;19.63;;;15.15;;
80272;SDS011;69574;45.328;9.598;2023-09-19T08:51:32;56.10;;;17.35;;
80272;SDS011;69574;45.328;9.598;2023-09-19T08:54:03;22.92;;;15.20;;
80272;SDS011;69574;45.328;9.598;2023-09-19T08:56:33;20.50;;;12.88;;
80272;SDS011;69574;45.328;9.598;2023-09-19T08:59:00;21.67;;;13.45;;
80272;SDS011;69574;45.328;9.598;2023-09-19T09:01:27;17.48;;;13.52;;
80272;SDS011;69574;45.328;9.598;2023-09-19T09:03:53;16.80;;;13.07;;
80272;SDS011;69574;45.328;9.598;2023-09-19T09:06:19;14.90;;;12.02;;
80272;SDS011;69574;45.328;9.598;2023-09-19T09:11:10;17.52;;;12.52;;
80272;SDS011;69574;45.328;9.598;2023-09-19T09:13:38;15.50;;;11.52;;
80272;SDS011;69574;45.328;9.598;2023-09-19T09:16:04;17.80;;;10.15;;
80272;SDS011;69574;45.328;9.598;2023-09-19T09:18:29;13.05;;;10.18;;
80272;SDS011;69574;45.328;9.598;2023-09-19T09:20:55;14.02;;;10.35;;
80272;SDS011;69574;45.328;9.598;2023-09-19T09:23:21;16.80;;;10.82;;
80272;SDS011;69574;45.328;9.598;2023-09-19T09:25:47;14.40;;;9.35;;
80272;SDS011;69574;45.328;9.598;2023-09-19T09:28:19;11.95;;;8.85;;
80272;SDS011;69574;45.328;9.598;2023-09-19T09:30:46;87.55;;;12.88;;
80272;SDS011;69574;45.328;9.598;2023-09-19T09:33:12;13.43;;;8.65;;
80272;SDS011;69574;45.328;9.598;2023-09-19T09:35:46;12.73;;;9.00;;
80272;SDS011;69574;45.328;9.598;2023-09-19T09:38:12;14.30;;;9.73;;
80272;SDS011;69574;45.328;9.598;2023-09-19T09:40:45;14.98;;;9.48;;
80272;SDS011;69574;45.328;9.598;2023-09-19T09:43:24;14.18;;;8.32;;
80272;SDS011;69574;45.328;9.598;2023-09-19T09:45:52;12.63;;;8.80;;
80272;SDS011;69574;45.328;9.598;2023-09-19T09:48:35;10.98;;;8.50;;
80272;SDS011;69574;45.328;9.598;2023-09-19T09:51:04;12.25;;;8.75;;
80272;SDS011;69574;45.328;9.598;2023-09-19T09:53:33;10.50;;;8.32;;
80272;SDS011;69574;45.328;9.598;2023-09-19T09:56:00;13.60;;;8.75;;
80272;SDS011;69574;45.328;9.598;2023-09-19T09:58:26;14.15;;;9.45;;
80272;SDS011;69574;45.328;9.598;2023-09-19T10:00:56;12.82;;;8.00;;
80272;SDS011;69574;45.328;9.598;2023-09-19T10:03:32;13.50;;;7.35;;
80272;SDS011;69574;45.328;9.598;2023-09-19T10:05:58;11.57;;;7.20;;
80272;SDS011;69574;45.328;9.598;2023-09-19T10:08:24;13.23;;;6.57;;
80272;SDS011;69574;45.328;9.598;2023-09-19T10:10:51;13.65;;;6.55;;
80272;SDS011;69574;45.328;9.598;2023-09-19T10:13:17;61.92;;;10.90;;
80272;SDS011;69574;45.328;9.598;2023-09-19T10:15:47;20.90;;;7.32;;
80272;SDS011;69574;45.328;9.598;2023-09-19T10:18:18;11.40;;;7.65;;
80272;SDS011;69574;45.328;9.598;2023-09-19T10:20:45;106.30;;;14.27;;
80272;SDS011;69574;45.328;9.598;2023-09-19T10:23:12;22.45;;;8.57;;
80272;SDS011;69574;45.328;9.598;2023-09-19T10:25:38;10.60;;;7.93;;
80272;SDS011;69574;45.328;9.598;2023-09-19T10:28:05;11.68;;;7.05;;
80272;SDS011;69574;45.328;9.598;2023-09-19T10:30:36;12.43;;;8.18;;
80272;SDS011;69574;45.328;9.598;2023-09-19T10:33:04;13.00;;;8.40;;
80272;SDS011;69574;45.328;9.598;2023-09-19T10:35:35;13.27;;;6.55;;
80272;SDS011;69574;45.328;9.598;2023-09-19T10:38:06;11.75;;;6.75;;
80272;SDS011;69574;45.328;9.598;2023-09-19T10:40:32;13.52;;;6.97;;
80272;SDS011;69574;45.328;9.598;2023-09-19T10:43:00;14.75;;;8.02;;
80272;SDS011;69574;45.328;9.598;2023-09-19T10:45:25;11.20;;;7.57;;
80272;SDS011;69574;45.328;9.598;2023-09-19T10:47:53;14.77;;;7.88;;
80272;SDS011;69574;45.328;9.598;2023-09-19T10:50:20;12.52;;;7.50;;
80272;SDS011;69574;45.328;9.598;2023-09-19T10:52:51;9.35;;;6.55;;
80272;SDS011;69574;45.328;9.598;2023-09-19T10:55:29;11.95;;;7.32;;
80272;SDS011;69574;45.328;9.598;2023-09-19T10:57:56;16.40;;;7.50;;
80272;SDS011;69574;45.328;9.598;2023-09-19T11:00:25;11.98;;;7.85;;
80272;SDS011;69574;45.328;9.598;2023-09-19T11:05:42;11.82;;;6.70;;
80272;SDS011;69574;45.328;9.598;2023-09-19T11:08:09;14.18;;;7.45;;
80272;SDS011;69574;45.328;9.598;2023-09-19T11:10:46;24.95;;;6.93;;
80272;SDS011;69574;45.328;9.598;2023-09-19T11:13:25;16.83;;;5.57;;
80272;SDS011;69574;45.328;9.598;2023-09-19T11:18:52;11.65;;;5.15;;
80272;SDS011;69574;45.328;9.598;2023-09-19T11:26:50;9.75;;;5.03;;
80272;SDS011;69574;45.328;9.598;2023-09-19T11:29:25;10.98;;;4.95;;
80272;SDS011;69574;45.328;9.598;2023-09-19T11:31:53;8.82;;;4.88;;
80272;SDS011;69574;45.328;9.598;2023-09-19T11:34:37;11.77;;;5.18;;
80272;SDS011;69574;45.328;9.598;2023-09-19T11:37:03;11.23;;;5.13;;
80272;SDS011;69574;45.328;9.598;2023-09-19T11:40:05;10.00;;;5.25;;
80272;SDS011;69574;45.328;9.598;2023-09-19T11:42:47;11.93;;;4.65;;
80272;SDS011;69574;45.328;9.598;2023-09-19T11:47:59;8.50;;;4.40;;
80272;SDS011;69574;45.328;9.598;2023-09-19T11:50:25;11.38;;;5.25;;
80272;SDS011;69574;45.328;9.598;2023-09-19T11:52:53;8.15;;;5.10;;
80272;SDS011;69574;45.328;9.598;2023-09-19T11:55:20;7.53;;;4.40;;
80272;SDS011;69574;45.328;9.598;2023-09-19T11:57:48;9.30;;;4.68;;
80272;SDS011;69574;45.328;9.598;2023-09-19T12:00:17;9.50;;;4.88;;
80272;SDS011;69574;45.328;9.598;2023-09-19T12:02:43;9.88;;;4.65;;
80272;SDS011;69574;45.328;9.598;2023-09-19T12:05:10;6.88;;;3.90;;
80272;SDS011;69574;45.328;9.598;2023-09-19T12:07:42;9.75;;;3.88;;
80272;SDS011;69574;45.328;9.598;2023-09-19T12:10:07;10.77;;;4.63;;
80272;SDS011;69574;45.328;9.598;2023-09-19T12:12:36;7.28;;;4.30;;
80272;SDS011;69574;45.328;9.598;2023-09-19T12:15:04;14.63;;;5.80;;
80272;SDS011;69574;45.328;9.598;2023-09-19T12:17:35;10.68;;;4.50;;
80272;SDS011;69574;45.328;9.598;2023-09-19T12:20:01;11.05;;;5.30;;
80272;SDS011;69574;45.328;9.598;2023-09-19T12:22:40;9.90;;;4.95;;
80272;SDS011;69574;45.328;9.598;2023-09-19T12:25:09;8.88;;;4.72;;
80272;SDS011;69574;45.328;9.598;2023-09-19T12:27:41;9.07;;;4.55;;
80272;SDS011;69574;45.328;9.598;2023-09-19T12:30:11;7.80;;;4.68;;
80272;SDS011;69574;45.328;9.598;2023-09-19T12:32:39;11.07;;;5.07;;
80272;SDS011;69574;45.328;9.598;2023-09-19T12:35:09;11.18;;;5.03;;
80272;SDS011;69574;45.328;9.598;2023-09-19T12:37:43;11.80;;;4.28;;
80272;SDS011;69574;45.328;9.598;2023-09-19T12:40:13;9.73;;;4.57;;
80272;SDS011;69574;45.328;9.598;2023-09-19T12:42:47;8.43;;;4.10;;
80272;SDS011;69574;45.328;9.598;2023-09-19T12:45:15;7.78;;;3.83;;
80272;SDS011;69574;45.328;9.598;2023-09-19T12:50:24;10.10;;;4.22;;
80272;SDS011;69574;45.328;9.598;2023-09-19T12:52:55;7.82;;;4.22;;
80272;SDS011;69574;45.328;9.598;2023-09-19T12:55:24;7.07;;;4.03;;
80272;SDS011;69574;45.328;9.598;2023-09-19T12:58:07;8.13;;;4.40;;
80272;SDS011;69574;45.328;9.598;2023-09-19T13:00:36;10.77;;;5.00;;
80272;SDS011;69574;45.328;9.598;2023-09-19T13:03:15;9.07;;;4.30;;
80272;SDS011;69574;45.328;9.598;2023-09-19T13:05:52;10.10;;;4.43;;
80272;SDS011;69574;45.328;9.598;2023-09-19T13:08:20;9.45;;;4.30;;
80272;SDS011;69574;45.328;9.598;2023-09-19T13:11:05;6.80;;;4.22;;
80272;SDS011;69574;45.328;9.598;2023-09-19T13:13:49;10.98;;;4.97;;
80272;SDS011;69574;45.328;9.598;2023-09-19T13:16:21;8.98;;;4.55;;
80272;SDS011;69574;45.328;9.598;2023-09-19T13:18:52;9.30;;;4.28;;
80272;SDS011;69574;45.328;9.598;2023-09-19T13:21:27;7.20;;;4.85;;
80272;SDS011;69574;45.328;9.598;2023-09-19T13:23:53;8.70;;;4.10;;
80272;SDS011;69574;45.328;9.598;2023-09-19T13:26:24;8.43;;;4.13;;
80272;SDS011;69574;45.328;9.598;2023-09-19T13:28:49;9.13;;;4.60;;
80272;SDS011;69574;45.328;9.598;2023-09-19T13:31:15;13.40;;;4.57;;
80272;SDS011;69574;45.328;9.598;2023-09-19T13:36:08;8.83;;;4.40;;
80272;SDS011;69574;45.328;9.598;2023-09-19T13:38:34;12.15;;;4.97;;
80272;SDS011;69574;45.328;9.598;2023-09-19T13:41:00;9.52;;;4.22;;
80272;SDS011;69574;45.328;9.598;2023-09-19T13:43:26;8.95;;;3.90;;
80272;SDS011;69574;45.328;9.598;2023-09-19T13:45:52;8.23;;;4.60;;
80272;SDS011;69574;45.328;9.598;2023-09-19T13:48:18;9.18;;;3.92;;
80272;SDS011;69574;45.328;9.598;2023-09-19T13:50:47;8.20;;;4.30;;
80272;SDS011;69574;45.328;9.598;2023-09-19T13:53:14;9.85;;;4.45;;
80272;SDS011;69574;45.328;9.598;2023-09-19T13:55:40;9.07;;;4.07;;
80272;SDS011;69574;45.328;9.598;2023-09-19T13:58:06;11.13;;;5.03;;
80272;SDS011;69574;45.328;9.598;2023-09-19T14:00:32;7.75;;;3.63;;
80272;SDS011;69574;45.328;9.598;2023-09-19T14:03:01;9.25;;;4.10;;
80272;SDS011;69574;45.328;9.598;2023-09-19T14:05:26;7.32;;;3.65;;
80272;SDS011;69574;45.328;9.598;2023-09-19T14:07:53;11.50;;;4.35;;
80272;SDS011;69574;45.328;9.598;2023-09-19T14:10:22;6.63;;;3.22;;
80272;SDS011;69574;45.328;9.598;2023-09-19T14:12:48;6.75;;;3.60;;
80272;SDS011;69574;45.328;9.598;2023-09-19T14:15:14;9.57;;;3.67;;
80272;SDS011;69574;45.328;9.598;2023-09-19T14:17:39;8.68;;;3.72;;
80272;SDS011;69574;45.328;9.598;2023-09-19T14:20:10;7.65;;;3.42;;
80272;SDS011;69574;45.328;9.598;2023-09-19T14:22:36;11.88;;;4.00;;
80272;SDS011;69574;45.328;9.598;2023-09-19T14:25:01;9.95;;;3.90;;
80272;SDS011;69574;45.328;9.598;2023-09-19T14:27:29;10.80;;;4.45;;
80272;SDS011;69574;45.328;9.598;2023-09-19T14:29:54;7.90;;;3.90;;
80272;SDS011;69574;45.328;9.598;2023-09-19T14:32:20;6.80;;;3.58;;
80272;SDS011;69574;45.328;9.598;2023-09-19T14:34:46;8.90;;;3.85;;
80272;SDS011;69574;45.328;9.598;2023-09-19T14:37:12;7.40;;;4.22;;
80272;SDS011;69574;45.328;9.598;2023-09-19T14:39:38;9.40;;;4.25;;
80272;SDS011;69574;45.328;9.598;2023-09-19T14:42:05;8.65;;;3.92;;
80272;SDS011;69574;45.328;9.598;2023-09-19T14:44:32;9.68;;;4.72;;
80272;SDS011;69574;45.328;9.598;2023-09-19T14:46:58;9.13;;;3.47;;
80272;SDS011;69574;45.328;9.598;2023-09-19T14:49:24;6.80;;;3.45;;
80272;SDS011;69574;45.328;9.598;2023-09-19T14:51:50;8.70;;;3.60;;
80272;SDS011;69574;45.328;9.598;2023-09-19T14:54:17;11.20;;;4.10;;
80272;SDS011;69574;45.328;9.598;2023-09-19T14:56:44;8.35;;;4.07;;
80272;SDS011;69574;45.328;9.598;2023-09-19T14:59:10;9.73;;;4.22;;
80272;SDS011;69574;45.328;9.598;2023-09-19T15:01:37;8.20;;;4.47;;
80272;SDS011;69574;45.328;9.598;2023-09-19T15:04:04;7.40;;;3.63;;
80272;SDS011;69574;45.328;9.598;2023-09-19T15:06:29;11.52;;;4.00;;
80272;SDS011;69574;45.328;9.598;2023-09-19T15:08:55;9.18;;;3.90;;